Latest Weather Observations for Cabramurra

IDN60901

Issued at 11:25 pm EST Wednesday 17 September 2014 (issued every 10 minutes, with the page automatically refreshed every 10 minutes)

About weather observations | Map of Canberra area stations | Latest observations for Canberra area | Other Formats
Station Details ID: 072161 Name: CABRAMURRA SMHEA AWS Lat: -35.94 Lon: 148.38 Height: 1482.4 m
Data from the previous 72 hours. | See also: Recent months at Cabramurra
Date/Time
EST
Tmp

°C
App
Tmp
°C
Dew
Point
°C
Rel
Hum
%
Delta-T

°C
Wind Press
QNH
hPa
Press
MSL
hPa
Rain
since
9 am
mm
Dir
 
Spd
km/h
Gust
km/h
Spd
kts
Gust
kts
17/11:00pm -0.3 -8.0 -0.4 99 0.0 W 30 41 16 22 - - 2.0
17/10:30pm -0.2 -7.9 -0.3 99 0.0 W 30 46 16 25 - - 2.0
17/10:19pm -0.2 -8.3 -0.3 99 0.0 W 32 50 17 27 - - 2.0
17/10:00pm -0.1 -7.4 -0.2 99 0.0 WSW 28 43 15 23 - - 2.0
17/09:30pm 0.1 -8.2 0.0 99 0.0 W 33 54 18 29 - - 2.0
17/09:23pm 0.0 -8.1 -0.1 99 0.0 WSW 32 54 17 29 - - 2.0
17/09:00pm 0.1 -8.5 0.0 99 0.0 W 35 50 19 27 - - 2.0
17/08:49pm 0.0 -8.1 -0.1 99 0.0 W 32 50 17 27 - - 2.0
17/08:30pm -0.1 -8.8 -0.2 99 0.0 W 35 50 19 27 - - 2.0
17/08:10pm 0.3 -8.3 0.2 99 0.0 W 35 61 19 33 - - 1.2
17/08:00pm 0.3 -6.6 0.2 99 0.0 WNW 26 39 14 21 - - 1.0
17/07:30pm 0.3 -8.3 0.2 99 0.0 W 35 54 19 29 - - 1.0
17/07:00pm 1.3 -7.8 -0.3 89 0.6 W 37 59 20 32 - - 0.8
17/06:30pm 1.4 -7.6 -0.2 89 0.6 W 37 54 20 29 - - 0.8
17/06:00pm 1.7 -5.7 -0.5 85 0.9 W 28 48 15 26 - - 0.8
17/05:31pm 2.0 -7.5 -0.9 81 1.2 W 39 57 21 31 - - 0.8
17/05:30pm 2.1 -7.8 -1.2 79 1.3 W 41 57 22 31 - - 0.8
17/05:10pm 2.3 -5.9 0.2 86 0.9 W 33 54 18 29 - - 0.8
17/05:00pm 2.2 -6.4 -0.1 85 0.9 W 35 52 19 28 - - 0.8
17/04:30pm 2.5 -4.6 1.3 92 0.5 W 28 50 15 27 - - 0.8
17/04:27pm 2.5 -4.6 1.6 94 0.4 W 28 46 15 25 - - 0.8
17/04:00pm 2.4 -4.9 2.3 99 0.0 WSW 30 44 16 24 - - 0.8
17/03:38pm 2.2 -5.2 2.1 99 0.0 W 30 48 16 26 - - 0.8
17/03:30pm 2.2 -5.7 2.1 99 0.0 W 33 46 18 25 - - 0.8
17/03:04pm 2.7 -4.6 2.4 98 0.1 W 30 48 16 26 - - 0.8
17/03:00pm 2.9 -4.4 2.6 98 0.1 W 30 44 16 24 - - 0.8
17/02:37pm 2.3 -5.4 2.2 99 0.0 W 32 56 17 30 - - 0.8
17/02:30pm 2.9 -4.9 2.8 99 0.0 W 33 46 18 25 - - 0.8
17/02:01pm 1.0 -7.5 0.9 99 0.0 W 35 54 19 29 - - 0.6
17/02:00pm 1.2 -6.9 1.1 99 0.0 W 33 50 18 27 - - 0.6
17/01:31pm 1.2 -5.9 1.1 99 0.0 W 28 46 15 25 - - 0.2
17/01:30pm 1.1 -5.7 1.0 99 0.0 W 26 44 14 24 - - 0.2
17/01:00pm 2.3 -6.3 0.2 86 0.9 WNW 35 56 19 30 - - 0.0
17/12:40pm 3.2 -4.8 0.4 82 1.2 W 32 69 17 37 - - 0.0
17/12:39pm 3.5 -4.0 1.4 86 0.9 W 30 48 16 26 - - 0.0
17/12:30pm 2.8 -5.2 1.5 91 0.6 W 33 46 18 25 - - 0.0
17/12:11pm 1.6 -6.0 0.4 92 0.5 W 30 48 16 26 - - 0.0
17/12:00pm 1.6 -4.5 0.7 94 0.4 W 22 32 12 17 - - 0.0
17/11:30am 1.3 -5.5 0.9 97 0.2 WNW 26 39 14 21 - - 0.0
17/11:24am 1.3 -5.8 1.2 99 0.0 WNW 28 46 15 25 - - 0.0
17/11:00am 1.3 -5.5 0.9 97 0.2 W 26 43 14 23 - - 0.0
17/10:30am 1.6 -6.4 1.5 99 0.0 W 33 54 18 29 - - 0.0
17/10:23am 1.9 -6.1 1.8 99 0.0 W 33 54 18 29 - - 0.0
17/10:21am 2.0 -7.1 1.9 99 0.0 WNW 39 50 21 27 - - 0.0
17/10:00am 0.9 -7.0 0.8 99 0.0 WSW 32 56 17 30 - - 0.0
17/09:50am 0.8 -6.4 0.7 99 0.0 W 28 52 15 28 - - 0.0
17/09:30am 0.9 -6.7 0.8 99 0.0 W 30 41 16 22 - - 0.0
17/09:04am 0.3 -7.0 0.2 99 0.0 WSW 28 52 15 28 - - 0.0
17/09:00am 0.4 -6.1 0.3 99 0.0 WSW 24 39 13 21 - - 6.4
17/08:31am 0.7 -6.5 0.6 99 0.0 W 28 56 15 30 - - 6.4
17/08:30am 0.8 -6.0 0.7 99 0.0 W 26 44 14 24 - - 6.4
17/08:00am 0.7 -6.5 0.6 99 0.0 W 28 44 15 24 - - 6.4
17/07:30am 0.8 -5.6 0.7 99 0.0 W 24 50 13 27 - - 6.4
17/07:25am 0.7 -6.5 0.6 99 0.0 W 28 50 15 27 - - 6.4
17/07:00am 0.7 -5.4 0.6 99 0.0 WSW 22 32 12 17 - - 6.4
17/06:30am 0.7 -6.9 0.6 99 0.0 W 30 50 16 27 - - 6.4
17/06:01am 0.8 -6.4 0.7 99 0.0 W 28 46 15 25 - - 6.4
17/06:00am 1.0 -5.4 0.9 99 0.0 W 24 44 13 24 - - 6.4
17/05:36am 1.2 -5.9 1.1 99 0.0 W 28 57 15 31 - - 6.4
17/05:30am 1.5 -4.8 1.4 99 0.0 W 24 39 13 21 - - 6.4
17/05:00am 1.7 -3.8 1.6 99 0.0 WNW 20 37 11 20 - - 6.4
17/04:30am 1.6 -4.0 1.5 99 0.0 W 20 32 11 17 - - 6.4
17/04:00am 2.2 -4.4 2.1 99 0.0 WNW 26 39 14 21 - - 6.4
17/03:30am 2.6 -2.8 2.5 99 0.0 W 20 33 11 18 - - 6.4
17/03:00am 2.9 -2.2 2.9 100 0.0 W 19 32 10 17 - - 6.4
17/02:30am 3.4 -1.3 3.4 100 0.0 W 17 35 9 19 - - 6.4
17/02:00am 3.5 -3.2 3.5 100 0.0 W 28 48 15 26 - - 6.4
17/01:56am 3.4 -3.3 3.4 100 0.0 W 28 48 15 26 - - 6.4
17/01:30am 3.7 -1.5 3.7 100 0.0 WNW 20 35 11 19 - - 6.4
17/01:00am 3.9 -3.5 3.9 100 0.0 WNW 32 44 17 24 - - 6.4
17/12:44am 4.1 -2.5 4.1 100 0.0 W 28 46 15 25 - - 6.4
17/12:30am 4.3 -1.5 4.3 100 0.0 W 24 39 13 21 - - 6.4
17/12:00am 4.3 -1.5 4.3 100 0.0 W 24 39 13 21 - - 6.4
 
Date/Time
EST
Tmp

°C
App
Tmp
°C
Dew
Point
°C
Rel
Hum
%
Delta-T

°C
Wind Press
QNH
hPa
Press
MSL
hPa
Rain
since
9 am
mm
Dir
 
Spd
km/h
Gust
km/h
Spd
kts
Gust
kts
16/11:30pm 4.5 -0.3 4.5 100 0.0 W 19 32 10 17 - - 6.0
16/11:00pm 4.5 -0.9 4.5 100 0.0 W 22 32 12 17 - - 6.0
16/10:30pm 4.5 -0.5 4.5 100 0.0 W 20 32 11 17 - - 6.0
16/10:06pm 4.2 -2.4 4.2 100 0.0 WNW 28 50 15 27 - - 6.0
16/10:00pm 4.4 -1.8 4.4 100 0.0 WNW 26 43 14 23 - - 6.0
16/09:40pm 4.4 -2.5 4.4 100 0.0 WNW 30 48 16 26 - - 6.0
16/09:30pm 4.3 -2.7 4.3 100 0.0 WNW 30 44 16 24 - - 5.8
16/09:24pm 4.3 -2.3 4.3 100 0.0 WNW 28 46 15 25 - - 5.4
16/09:00pm 4.6 -1.5 4.6 100 0.0 WNW 26 43 14 23 - - 4.6
16/08:30pm 4.5 -1.3 4.5 100 0.0 W 24 35 13 19 - - 4.2
16/08:06pm 4.3 -2.3 4.2 99 0.0 W 28 46 15 25 - - 3.8
16/08:00pm 4.6 -0.4 4.6 100 0.0 W 20 35 11 19 - - 3.4
16/07:30pm 4.4 -0.7 4.3 99 0.0 WNW 20 32 11 17 - - 1.0
16/07:00pm 4.3 -2.7 4.2 99 0.0 W 30 46 16 25 - - 1.0
16/06:53pm 4.3 -2.3 4.2 99 0.0 W 28 46 15 25 - - 1.0
16/06:30pm 4.3 -0.2 4.2 99 0.0 W 17 26 9 14 - - 0.8
16/06:00pm 4.3 -2.3 4.2 99 0.0 WNW 28 46 15 25 - - 0.8
16/05:55pm 4.4 -2.2 4.3 99 0.0 WNW 28 46 15 25 - - 0.8
16/05:30pm 4.3 -2.7 4.2 99 0.0 WNW 30 44 16 24 - - 0.8
16/05:23pm 4.5 -2.1 4.4 99 0.0 WNW 28 46 15 25 - - 0.8
16/05:00pm 4.7 -0.7 4.6 99 0.0 W 22 41 12 22 - - 0.8
16/04:30pm 5.1 -1.3 5.0 99 0.0 WNW 28 43 15 23 - - 0.8
16/04:00pm 5.4 -0.7 4.8 96 0.3 WNW 26 41 14 22 - - 0.8
16/03:30pm 5.6 -0.7 5.5 99 0.0 W 28 43 15 23 - - 0.8
16/03:00pm 5.3 0.4 4.9 97 0.2 WNW 20 33 11 18 - - 0.8
16/02:30pm 5.4 -1.4 5.3 99 0.0 WNW 30 46 16 25 - - 0.8
16/02:00pm 5.0 -1.1 4.9 99 0.0 W 26 41 14 22 - - 0.8
16/01:30pm 5.3 -1.1 5.2 99 0.0 W 28 39 15 21 - - 0.8
16/01:00pm 5.4 0.2 5.3 99 0.0 W 22 37 12 20 - - 0.8
16/12:30pm 5.9 1.1 5.6 98 0.1 WNW 20 30 11 16 - - 0.4
16/12:00pm 5.6 0.4 5.5 99 0.0 WNW 22 39 12 21 - - 0.0
16/11:30am 6.3 1.1 5.3 93 0.5 W 22 39 12 21 - - 0.0
16/11:00am 6.5 2.2 5.1 91 0.7 W 17 26 9 14 - - 0.0
16/10:30am 7.8 3.0 4.4 79 1.6 N 19 28 10 15 - - 0.0
16/10:00am 7.8 2.7 4.0 77 1.8 NNW 20 30 11 16 - - 0.0
16/09:30am 7.6 1.6 3.5 75 1.9 N 24 33 13 18 - - 0.0
16/09:00am 7.4 2.3 3.3 75 1.9 NNW 19 26 10 14 - - 1.0
16/08:30am 7.3 2.1 2.6 72 2.1 NNW 19 28 10 15 - - 1.0
16/08:00am 7.9 3.0 2.0 66 2.7 N 17 28 9 15 - - 1.0
16/07:30am 7.8 2.5 1.9 66 2.7 NNE 19 32 10 17 - - 1.0
16/07:00am 7.4 2.0 1.0 64 2.8 NNE 19 30 10 16 - - 1.0
16/06:30am 7.5 0.3 0.9 63 2.9 NNE 28 44 15 24 - - 1.0
16/06:08am 7.5 0.3 0.9 63 2.9 NNE 28 50 15 27 - - 1.0
16/06:00am 7.3 0.1 1.0 64 2.8 NNE 28 39 15 21 - - 1.0
16/05:30am 6.5 -0.7 1.0 68 2.4 NE 28 39 15 21 - - 1.0
16/05:00am 6.2 0.7 1.7 73 2.0 NE 20 28 11 15 - - 1.0
16/04:30am 6.8 1.9 1.9 71 2.2 NE 17 20 9 11 - - 1.0
16/04:00am 6.4 1.9 2.3 75 1.8 NE 15 26 8 14 - - 1.0
16/03:30am 6.9 0.3 2.2 72 2.1 NNE 26 44 14 24 - - 1.0
16/03:00am 7.0 1.2 2.1 71 2.2 NE 22 30 12 16 - - 1.0
16/02:30am 7.7 2.8 2.0 67 2.6 N 17 26 9 14 - - 1.0
16/02:00am 7.0 0.5 2.9 75 1.9 N 26 37 14 20 - - 1.0
16/01:30am 7.3 3.3 2.6 72 2.1 N 13 19 7 10 - - 1.0
16/01:00am 7.1 2.3 2.8 74 2.0 N 17 26 9 14 - - 1.0
16/12:30am 7.0 1.7 3.1 76 1.8 NNE 20 35 11 19 - - 1.0
16/12:00am 7.0 1.8 3.3 77 1.7 NNE 20 33 11 18 - - 1.0
 
Date/Time
EST
Tmp

°C
App
Tmp
°C
Dew
Point
°C
Rel
Hum
%
Delta-T

°C
Wind Press
QNH
hPa
Press
MSL
hPa
Rain
since
9 am
mm
Dir
 
Spd
km/h
Gust
km/h
Spd
kts
Gust
kts
15/11:30pm 5.9 0.8 3.9 87 0.9 NE 20 32 11 17 - - 1.0
15/11:00pm 5.7 -0.2 3.9 88 0.8 NE 24 30 13 16 - - 1.0
15/10:30pm 5.4 -0.5 4.1 91 0.6 ENE 24 30 13 16 - - 1.0
15/10:00pm 5.4 -0.8 4.1 91 0.6 ENE 26 33 14 18 - - 1.0
15/09:30pm 5.5 1.1 4.8 95 0.3 NE 17 24 9 13 - - 1.0
15/09:00pm 5.7 2.9 5.0 95 0.3 NNE 9 15 5 8 - - 0.8
15/08:30pm 5.7 2.7 4.3 91 0.7 NW 9 19 5 10 - - 0.4
15/08:00pm 6.6 2.8 3.9 83 1.3 NNW 13 17 7 9 - - 0.0
15/07:30pm 6.9 3.6 4.7 86 1.1 N 11 15 6 8 - - 0.0
15/07:00pm 7.3 4.0 4.6 83 1.3 NNW 11 15 6 8 - - 0.0
15/06:30pm 7.8 5.2 4.4 79 1.6 N 7 11 4 6 - - 0.0
15/06:00pm 8.2 5.7 4.6 78 1.7 N 7 11 4 6 - - 0.0
15/05:30pm 8.4 5.5 4.8 78 1.7 NNW 9 13 5 7 - - 0.0
15/05:00pm 9.0 6.5 4.0 71 2.4 NNW 6 9 3 5 - - 0.0
15/04:30pm 9.5 6.1 2.1 60 3.4 NW 9 13 5 7 - - 0.0
15/04:00pm 10.3 7.4 2.7 59 3.6 WNW 7 11 4 6 - - 0.0
15/03:30pm 10.4 7.7 2.7 59 3.6 WNW 6 11 3 6 - - 0.0
15/03:00pm 10.3 7.3 2.2 57 3.8 WNW 7 13 4 7 - - 0.0
15/02:30pm 10.3 6.1 1.7 55 4.0 WNW 13 20 7 11 - - 0.0
15/02:00pm 11.2 7.4 1.7 52 4.4 W 11 17 6 9 - - 0.0
15/01:30pm 11.2 6.3 1.7 52 4.4 W 17 22 9 12 - - 0.0
15/01:00pm 10.6 5.7 1.7 54 4.1 WNW 17 28 9 15 - - 0.0
15/12:30pm 10.7 6.6 2.0 55 4.0 W 13 19 7 10 - - 0.0
15/12:00pm 10.7 5.9 2.5 57 3.8 WNW 17 28 9 15 - - 0.0
15/11:30am 10.0 5.3 0.9 53 4.1 WNW 15 22 8 12 - - 0.0
15/11:00am 9.5 4.9 1.4 57 3.7 WNW 15 24 8 13 - - 0.0
15/10:30am 8.8 4.9 1.0 58 3.5 WNW 11 15 6 8 - - 0.0
15/10:00am 8.2 4.2 0.7 59 3.3 W 11 15 6 8 - - 0.0
15/09:30am 7.2 2.9 0.9 64 2.8 NW 13 17 7 9 - - 0.0
15/09:00am 7.1 3.4 -0.1 60 3.1 NW 9 13 5 7 - - 0.0
15/08:30am 6.4 3.0 -0.3 62 2.8 NW 7 9 4 5 - - 0.0
15/08:00am 6.1 4.1 -0.2 64 2.7 CALM 0 0 0 0 - - 0.0
15/07:30am 5.4 3.3 -1.1 63 2.7 CALM 0 0 0 0 - - 0.0
15/07:00am 4.6 2.4 -1.2 66 2.4 CALM 0 0 0 0 - - 0.0
15/06:30am 4.2 2.1 -0.8 70 2.0 CALM 0 0 0 0 - - 0.0
15/06:00am 4.2 0.7 -1.0 69 2.1 SSW 7 9 4 5 - - 0.0
15/05:30am 4.1 0.8 -0.9 70 2.0 S 6 7 3 4 - - 0.0
15/05:00am 3.8 0.4 -0.8 72 1.9 SSW 7 9 4 5 - - 0.0
15/04:30am 3.6 -0.6 -1.2 71 1.9 S 11 13 6 7 - - 0.0
15/04:00am 4.1 -0.5 -0.9 70 2.0 S 13 15 7 8 - - 0.0
15/03:30am 4.0 -0.6 -1.2 69 2.1 S 13 17 7 9 - - 0.0
15/03:00am 3.6 -1.0 -0.8 73 1.8 S 13 17 7 9 - - 0.0
15/02:30am 3.5 -0.5 0.2 79 1.4 S 11 11 6 6 - - 0.0
15/02:00am 3.9 2.3 2.3 89 0.7 CALM 0 0 0 0 - - 0.0
15/01:30am 3.6 2.0 2.3 91 0.6 CALM 0 0 0 0 - - 0.0
15/01:00am 3.5 1.8 1.9 89 0.7 CALM 0 0 0 0 - - 0.0
15/12:30am 3.9 2.3 2.3 89 0.7 CALM 0 0 0 0 - - 0.0
15/12:00am 4.0 0.8 3.3 95 0.3 SE 9 11 5 6 - - 0.0
 
Date/Time
EST
Tmp

°C
App
Tmp
°C
Dew
Point
°C
Rel
Hum
%
Delta-T

°C
Wind Press
QNH
hPa
Press
MSL
hPa
Rain
since
9 am
mm
Dir
 
Spd
km/h
Gust
km/h
Spd
kts
Gust
kts
14/11:30pm 3.8 1.0 3.1 95 0.3 SSE 7 9 4 5 - - 0.0

Latest Capital City Observations: Canberra | Sydney | Melbourne | Brisbane | Adelaide | Perth | Hobart | Darwin

Other Formats:

Comma delimited format used in spreadsheet applications
http://www.bom.gov.au/fwo/IDN60903/IDN60903.95916.axf

JavaScript Object Notation format (JSON) in row-major order
http://www.bom.gov.au/fwo/IDN60903/IDN60903.95916.json